Time;durP1;ratioP1;P1;durP2;ratioP2;P2;SDS_P1;SDS_P2;PMS_P1;PMS_P2;Temp;Humidity;BMP_temperature;BMP_pressure;BME280_temperature;BME280_humidity;BME280_pressure;Samples;Min_cycle;Max_cycle;Signal;HPM_P1;HPM_P2
2023/06/15 00:02:16;;;;;;;6.82;1.95;;;;;;;17.12;99.78;101751.75;5028275;28;20046;-69
2023/06/15 00:04:43;;;;;;;9.98;2.03;;;;;;;17.22;99.72;101762.78;5016954;28;20050;-70
2023/06/15 00:07:10;;;;;;;6.55;2.03;;;;;;;17.25;100.00;101752.03;5025497;28;20104;-70
2023/06/15 00:09:36;;;;;;;5.82;1.80;;;;;;;17.11;100.00;101752.72;5027836;28;20042;-70
2023/06/15 00:12:03;;;;;;;5.00;1.75;;;;;;;17.18;100.00;101762.06;5024663;28;20051;-70
2023/06/15 00:14:30;;;;;;;4.82;1.80;;;;;;;16.97;100.00;101753.38;5023200;28;20037;-69
2023/06/15 00:16:57;;;;;;;5.38;1.83;;;;;;;17.10;100.00;101748.34;5030695;28;20097;-69
2023/06/15 00:19:24;;;;;;;7.82;2.08;;;;;;;17.32;100.00;101749.94;5022801;28;20081;-69
2023/06/15 00:21:53;;;;;;;6.55;1.90;;;;;;;17.35;100.00;101748.00;5029166;28;20124;-69
2023/06/15 00:24:20;;;;;;;5.70;1.88;;;;;;;17.33;100.00;101747.19;5020559;28;20046;-69
2023/06/15 00:26:47;;;;;;;7.10;1.83;;;;;;;17.32;100.00;101747.31;5012491;28;20473;-69
2023/06/15 00:29:14;;;;;;;6.65;2.28;;;;;;;17.18;100.00;101753.28;5019041;28;20084;-70
2023/06/15 00:31:41;;;;;;;7.13;2.10;;;;;;;17.13;100.00;101750.84;5028371;28;20060;-69
2023/06/15 00:34:09;;;;;;;5.43;1.95;;;;;;;17.26;100.00;101756.38;5025177;28;21547;-69
2023/06/15 00:36:36;;;;;;;5.07;1.73;;;;;;;17.33;100.00;101747.19;5015931;28;20045;-69
2023/06/15 00:39:02;;;;;;;5.68;1.65;;;;;;;17.27;100.00;101747.53;5023381;28;20058;-69
2023/06/15 00:41:29;;;;;;;6.38;2.20;;;;;;;17.23;100.00;101760.06;5027937;28;20136;-70
2023/06/15 00:43:56;;;;;;;5.07;1.52;;;;;;;16.89;100.00;101739.66;5019196;28;20073;-69
2023/06/15 00:46:23;;;;;;;5.97;2.20;;;;;;;16.87;100.00;101754.75;5021260;28;20049;-70
2023/06/15 00:48:50;;;;;;;7.25;1.95;;;;;;;16.83;100.00;101737.28;5022555;28;20088;-69
2023/06/15 00:51:17;;;;;;;4.57;1.60;;;;;;;16.91;100.00;101737.81;5029657;28;20049;-70
2023/06/15 00:53:44;;;;;;;5.07;1.75;;;;;;;17.07;100.00;101757.28;5023318;28;20067;-69
2023/06/15 00:56:10;;;;;;;5.13;1.90;;;;;;;17.02;100.00;101745.22;5019606;28;20323;-70
2023/06/15 00:58:37;;;;;;;7.10;1.80;;;;;;;16.87;100.00;101736.22;5018805;28;20045;-70
2023/06/15 01:01:04;;;;;;;4.55;1.60;;;;;;;16.97;100.00;101749.88;5009711;28;20061;-70
2023/06/15 01:03:31;;;;;;;5.30;1.80;;;;;;;16.93;97.75;101735.94;5020701;28;20045;-70
2023/06/15 01:05:59;;;;;;;6.40;1.92;;;;;;;16.93;100.00;101737.72;5010256;28;20057;-70
2023/06/15 01:08:27;;;;;;;6.50;1.85;;;;;;;17.00;100.00;101747.94;5016755;28;20049;-69
2023/06/15 01:10:56;;;;;;;7.22;1.98;;;;;;;16.86;100.00;101739.81;5012911;28;20552;-70
2023/06/15 01:13:23;;;;;;;6.18;1.85;;;;;;;16.97;99.38;101753.38;5024318;28;20053;-69
2023/06/15 01:15:53;;;;;;;6.82;1.90;;;;;;;16.83;100.00;101746.09;5016193;28;20387;-69
2023/06/15 01:18:21;;;;;;;5.22;1.70;;;;;;;16.90;100.00;101749.31;5019851;28;20049;-69
2023/06/15 01:20:53;;;;;;;4.78;1.63;;;;;;;16.85;100.00;101736.28;5020237;28;20511;-69
2023/06/15 01:23:25;;;;;;;5.15;1.70;;;;;;;16.90;100.00;101741.38;5014201;28;20041;-70
2023/06/15 01:26:00;;;;;;;5.32;1.60;;;;;;;17.03;99.17;101742.50;5027774;28;20140;-69
2023/06/15 01:28:30;;;;;;;4.07;1.38;;;;;;;16.92;100.00;101731.56;5021370;28;20050;-68
2023/06/15 01:30:57;;;;;;;5.22;1.95;;;;;;;16.79;100.00;101727.78;5027685;28;20077;-69
2023/06/15 01:33:25;;;;;;;6.97;1.90;;;;;;;16.76;100.00;101728.78;5022880;28;20041;-69
2023/06/15 01:35:51;;;;;;;4.93;1.75;;;;;;;16.69;100.00;101733.50;5009598;28;20053;-69
2023/06/15 01:38:23;;;;;;;5.07;1.77;;;;;;;16.58;100.00;101733.16;5027532;28;20053;-69
2023/06/15 01:40:51;;;;;;;6.30;2.00;;;;;;;16.39;100.00;101724.38;5032336;28;20479;-69
2023/06/15 01:43:21;;;;;;;6.55;2.00;;;;;;;16.44;100.00;101730.31;5021432;28;20066;-70
2023/06/15 01:45:49;;;;;;;5.88;2.08;;;;;;;16.31;100.00;101722.09;5032186;28;20056;-69
2023/06/15 01:48:17;;;;;;;4.47;1.67;;;;;;;16.27;100.00;101728.44;5019578;28;20045;-69
2023/06/15 01:50:45;;;;;;;5.55;1.80;;;;;;;16.21;100.00;101736.66;5021314;28;20128;-69
2023/06/15 01:53:12;;;;;;;7.15;2.00;;;;;;;16.14;100.00;101739.56;5027429;28;20081;-69
2023/06/15 01:55:38;;;;;;;6.55;2.15;;;;;;;16.04;100.00;101727.72;5028162;28;20072;-70
2023/06/15 01:58:05;;;;;;;6.45;1.75;;;;;;;16.08;100.00;101739.84;5016641;28;20096;-69
2023/06/15 02:00:33;;;;;;;7.63;1.80;;;;;;;16.11;100.00;101733.53;5018742;28;20547;-70
2023/06/15 02:03:01;;;;;;;5.88;2.00;;;;;;;16.02;100.00;101724.25;5030633;28;20510;-70
2023/06/15 02:05:28;;;;;;;5.50;1.83;;;;;;;16.01;100.00;101738.41;5019114;28;20072;-70
2023/06/15 02:07:55;;;;;;;5.22;2.00;;;;;;;15.80;100.00;101736.72;5031456;28;20055;-69
2023/06/15 02:10:23;;;;;;;6.78;2.30;;;;;;;15.81;100.00;101743.69;5021975;28;20100;-69
2023/06/15 02:12:49;;;;;;;6.68;2.30;;;;;;;15.69;100.00;101735.34;5030520;28;20061;-69
2023/06/15 02:15:16;;;;;;;4.97;1.90;;;;;;;15.56;100.00;101742.94;5037796;28;20400;-69
2023/06/15 02:17:44;;;;;;;6.65;2.20;;;;;;;15.46;100.00;101743.41;5031806;28;20533;-69
2023/06/15 02:20:11;;;;;;;4.97;1.80;;;;;;;15.65;100.00;101740.81;5029272;28;20512;-69
2023/06/15 02:22:39;;;;;;;6.35;2.00;;;;;;;15.52;100.00;101737.84;5024484;28;20042;-69
2023/06/15 02:25:07;;;;;;;5.32;1.90;;;;;;;15.44;100.00;101730.28;5018929;28;20056;-69
2023/06/15 02:27:34;;;;;;;6.47;2.20;;;;;;;15.33;100.00;101737.75;5016649;28;20483;-70
2023/06/15 02:30:02;;;;;;;6.80;2.15;;;;;;;15.30;100.00;101732.63;5031716;28;20425;-69
2023/06/15 02:32:37;;;;;;;6.57;2.33;;;;;;;15.32;100.00;101736.91;5031417;28;20057;-69
2023/06/15 02:35:08;;;;;;;7.68;2.15;;;;;;;15.09;100.00;101732.59;5029174;28;20042;-69
2023/06/15 02:37:34;;;;;;;5.85;2.25;;;;;;;15.08;100.00;101727.38;5031680;28;20425;-69
2023/06/15 02:40:04;;;;;;;5.97;1.90;;;;;;;15.29;100.00;101728.25;5022303;28;20140;-69
2023/06/15 02:42:30;;;;;;;5.47;1.92;;;;;;;15.37;100.00;101732.31;5013027;28;20077;-69
2023/06/15 02:44:57;;;;;;;6.93;2.22;;;;;;;15.20;100.00;101716.31;5028336;28;20049;-69
2023/06/15 02:47:24;;;;;;;6.97;2.20;;;;;;;15.14;100.00;101735.91;5022288;28;20045;-69
2023/06/15 02:49:52;;;;;;;6.45;2.13;;;;;;;15.03;100.00;101730.19;5025354;28;20057;-69
2023/06/15 02:52:18;;;;;;;6.13;2.30;;;;;;;14.84;100.00;101711.63;5026290;28;20093;-70
2023/06/15 02:54:45;;;;;;;6.75;2.03;;;;;;;14.90;100.00;101728.97;5027152;28;20595;-69
2023/06/15 02:57:12;;;;;;;7.45;2.28;;;;;;;14.91;100.00;101738.56;5027593;28;20140;-70
2023/06/15 02:59:40;;;;;;;6.97;2.10;;;;;;;14.86;100.00;101730.03;5016068;28;20062;-70
2023/06/15 03:02:08;;;;;;;5.90;2.00;;;;;;;14.72;100.00;101733.19;5013720;28;20061;-70
2023/06/15 03:04:44;;;;;;;6.40;2.25;;;;;;;14.68;100.00;101743.00;5026087;28;20410;-70
2023/06/15 03:07:16;;;;;;;6.82;2.15;;;;;;;14.67;100.00;101735.16;5025966;28;20049;-70
2023/06/15 03:09:46;;;;;;;5.45;1.95;;;;;;;14.74;100.00;101739.25;5026605;28;20060;-69
2023/06/15 03:12:13;;;;;;;5.50;1.83;;;;;;;14.75;100.00;101733.06;5031098;28;20052;-70
2023/06/15 03:14:44;;;;;;;6.68;2.20;;;;;;;14.76;100.00;101740.91;5029628;28;20136;-68
2023/06/15 03:17:12;;;;;;;5.80;2.10;;;;;;;14.80;100.00;101739.00;5031095;28;20107;-69
2023/06/15 03:19:40;;;;;;;6.20;1.98;;;;;;;14.98;100.00;101738.28;5035307;28;20104;-70
2023/06/15 03:22:10;;;;;;;4.95;1.95;;;;;;;15.13;100.00;101728.88;5033652;28;20052;-70
2023/06/15 03:24:36;;;;;;;6.13;2.08;;;;;;;14.91;100.00;101722.75;5037006;28;20048;-69
2023/06/15 03:27:06;;;;;;;6.53;2.72;;;;;;;14.80;100.00;101739.00;5043129;28;20085;-69
2023/06/15 03:29:36;;;;;;;6.72;2.08;;;;;;;14.58;100.00;101726.66;5038179;28;20147;-69
2023/06/15 03:32:08;;;;;;;6.65;2.15;;;;;;;14.58;100.00;101729.31;5035432;28;20079;-69
2023/06/15 03:34:36;;;;;;;5.38;1.95;;;;;;;14.76;100.00;101732.16;5041796;28;20064;-69
2023/06/15 03:37:03;;;;;;;7.13;2.33;;;;;;;14.68;100.00;101729.81;5041834;28;20049;-69
2023/06/15 03:39:30;;;;;;;8.25;1.90;;;;;;;14.56;100.00;101719.72;5028115;28;20045;-69
2023/06/15 03:41:57;;;;;;;5.88;1.95;;;;;;;14.70;100.00;101727.97;5030599;28;20491;-69
2023/06/15 03:44:24;;;;;;;4.70;1.80;;;;;;;14.76;100.00;101722.44;5036303;28;20073;-70
2023/06/15 03:46:50;;;;;;;6.45;2.30;;;;;;;14.73;100.00;101719.06;5040670;28;20098;-69
2023/06/15 03:49:17;;;;;;;6.05;2.40;;;;;;;14.52;100.00;101733.91;5051131;28;20558;-69
2023/06/15 03:51:44;;;;;;;4.35;1.88;;;;;;;14.38;100.00;101726.56;5040358;28;20405;-68
2023/06/15 03:54:11;;;;;;;8.75;2.40;;;;;;;14.43;100.00;101729.88;5039471;28;20049;-70
2023/06/15 03:56:37;;;;;;;7.45;2.40;;;;;;;14.47;100.00;101722.72;5030812;28;20550;-70
2023/06/15 03:59:04;;;;;;;7.45;2.28;;;;;;;14.38;100.00;101727.41;5042025;28;20072;-70
2023/06/15 04:01:32;;;;;;;4.25;1.85;;;;;;;14.29;100.00;101722.50;5021058;28;20498;-70
2023/06/15 04:03:59;;;;;;;5.68;2.08;;;;;;;14.33;100.00;101729.34;5031748;28;20061;-69
2023/06/15 04:06:26;;;;;;;5.55;1.85;;;;;;;14.56;100.00;101728.47;5032633;28;20072;-69
2023/06/15 04:08:53;;;;;;;8.45;2.22;;;;;;;14.67;100.00;101727.25;5041407;28;20060;-70
2023/06/15 04:11:22;;;;;;;5.50;1.90;;;;;;;14.76;100.00;101713.69;5031224;28;20049;-69
2023/06/15 04:13:48;;;;;;;8.38;2.45;;;;;;;15.66;100.00;101706.44;5022755;28;20050;-69
2023/06/15 04:16:15;;;;;;;5.63;2.20;;;;;;;16.58;100.00;101714.66;5042714;28;20081;-69
2023/06/15 04:18:42;;;;;;;7.82;2.80;;;;;;;17.15;100.00;101724.31;5048547;28;20048;-68
2023/06/15 04:21:08;;;;;;;7.07;2.60;;;;;;;17.56;100.00;101721.34;5023422;28;20079;-70
2023/06/15 04:23:36;;;;;;;5.80;2.20;;;;;;;18.10;100.00;101734.50;5035216;28;20083;-69
2023/06/15 04:26:03;;;;;;;6.22;2.00;;;;;;;18.02;100.00;101677.47;5036597;28;20132;-69
2023/06/15 04:28:30;;;;;;;7.82;2.63;;;;;;;18.62;100.00;101712.22;5036969;28;20049;-69
2023/06/15 04:31:12;;;;;;;6.65;2.30;;;;;;;18.91;100.00;101729.16;5043233;28;20136;-69
2023/06/15 04:33:42;;;;;;;5.63;2.13;;;;;;;18.94;100.00;101737.78;5036481;28;20081;-69
2023/06/15 04:36:13;;;;;;;8.40;2.40;;;;;;;19.09;99.80;101737.88;5029978;28;20434;-69
2023/06/15 04:38:46;;;;;;;6.45;2.10;;;;;;;19.09;97.88;101736.06;5023581;28;20107;-69
2023/06/15 04:41:14;;;;;;;7.75;2.60;;;;;;;19.37;94.45;101729.16;5045689;28;20065;-69
2023/06/15 04:43:42;;;;;;;6.72;2.20;;;;;;;19.92;87.88;101740.97;5028420;28;20572;-69
2023/06/15 04:46:11;;;;;;;7.18;2.28;;;;;;;19.84;86.51;101737.91;5035786;28;20493;-69
2023/06/15 04:48:43;;;;;;;7.25;2.30;;;;;;;20.23;83.64;101728.44;5029919;28;20049;-70
2023/06/15 04:51:12;;;;;;;7.82;2.30;;;;;;;20.10;79.55;101709.75;5028344;28;20057;-70
2023/06/15 04:53:42;;;;;;;7.00;2.00;;;;;;;20.36;79.08;101734.69;5033700;28;20103;-69
2023/06/15 04:56:10;;;;;;;7.82;2.10;;;;;;;19.95;80.19;101747.88;5043197;28;20045;-69
2023/06/15 04:58:37;;;;;;;5.95;2.05;;;;;;;18.66;90.52;101737.63;5030528;28;20081;-69
2023/06/15 05:01:06;;;;;;;7.20;2.03;;;;;;;17.78;100.00;101745.81;5047356;28;20045;-70
2023/06/15 05:03:33;;;;;;;7.72;2.33;;;;;;;17.26;100.00;101741.38;5033947;28;20050;-69
2023/06/15 05:06:00;;;;;;;8.38;2.30;;;;;;;16.78;100.00;101741.94;5028759;28;20050;-70
2023/06/15 05:08:27;;;;;;;6.88;2.00;;;;;;;16.56;100.00;101748.25;5037520;28;20045;-70
2023/06/15 05:10:55;;;;;;;6.25;2.03;;;;;;;16.28;100.00;101741.56;5029130;28;20053;-69
2023/06/15 05:13:22;;;;;;;6.70;2.50;;;;;;;16.31;100.00;101748.53;5029425;28;20091;-70
2023/06/15 05:15:48;;;;;;;6.88;2.70;;;;;;;16.04;100.00;101750.59;5033733;28;20056;-70
2023/06/15 05:18:15;;;;;;;7.05;2.30;;;;;;;16.16;100.00;101743.91;5031746;28;20064;-70
2023/06/15 05:20:42;;;;;;;7.43;2.75;;;;;;;17.21;100.00;101750.44;5025357;28;20041;-69
2023/06/15 05:23:08;;;;;;;8.70;3.17;;;;;;;18.19;100.00;101739.28;5028082;28;20049;-70
2023/06/15 05:25:35;;;;;;;8.63;2.50;;;;;;;18.37;100.00;101751.53;5032823;28;20048;-70
2023/06/15 05:28:02;;;;;;;10.60;2.60;;;;;;;18.27;100.00;101752.97;5029410;28;20104;-70
2023/06/15 05:30:29;;;;;;;7.00;2.58;;;;;;;19.05;100.00;101741.63;5027454;28;20045;-69
2023/06/15 05:32:56;;;;;;;7.63;2.50;;;;;;;19.28;94.44;101740.31;5037948;28;20045;-70
2023/06/15 05:35:23;;;;;;;6.15;2.13;;;;;;;19.22;95.35;101732.72;5030982;28;20045;-70
2023/06/15 05:37:50;;;;;;;7.20;2.33;;;;;;;19.55;94.06;101740.50;5032273;28;20053;-70
2023/06/15 05:40:17;;;;;;;7.63;2.22;;;;;;;20.08;90.59;101741.72;5029392;28;20056;-69
2023/06/15 05:42:44;;;;;;;6.40;1.98;;;;;;;20.67;86.95;101751.38;5026395;28;20132;-70
2023/06/15 05:45:11;;;;;;;6.93;2.45;;;;;;;20.66;83.47;101750.53;5028992;28;20049;-69
2023/06/15 05:47:40;;;;;;;6.13;1.92;;;;;;;21.00;84.74;101747.47;5029075;28;20085;-70
2023/06/15 05:50:07;;;;;;;9.80;2.28;;;;;;;21.12;80.96;101748.47;5024570;28;20053;-70
2023/06/15 05:52:34;;;;;;;8.07;2.42;;;;;;;21.27;80.26;101747.47;5029854;28;20486;-70
2023/06/15 05:55:01;;;;;;;5.53;1.88;;;;;;;21.47;78.65;101743.47;5021161;28;20133;-70
2023/06/15 05:57:28;;;;;;;5.85;1.90;;;;;;;21.76;78.99;101745.97;5023755;28;20050;-70
2023/06/15 05:59:55;;;;;;;7.20;1.92;;;;;;;22.18;76.52;101743.94;5031649;28;20045;-69
2023/06/15 06:02:23;;;;;;;6.30;2.00;;;;;;;22.54;73.42;101740.47;5032818;28;20096;-71
2023/06/15 06:04:50;;;;;;;6.75;2.20;;;;;;;21.94;74.08;101755.38;5030597;28;20541;-70
2023/06/15 06:07:17;;;;;;;7.00;2.30;;;;;;;22.15;72.38;101734.34;5027324;28;20046;-70
2023/06/15 06:09:43;;;;;;;7.35;2.20;;;;;;;22.61;70.33;101753.38;5029330;28;20490;-69
2023/06/15 06:12:10;;;;;;;6.57;1.83;;;;;;;22.72;67.55;101764.97;5029814;28;20061;-70
2023/06/15 06:14:37;;;;;;;7.13;2.15;;;;;;;22.58;66.51;101754.44;5029183;28;20049;-69
2023/06/15 06:17:04;;;;;;;7.72;2.40;;;;;;;22.94;65.01;101745.53;5028788;28;20050;-70
2023/06/15 06:19:31;;;;;;;5.82;2.00;;;;;;;23.22;64.59;101754.22;5036494;28;20071;-69
2023/06/15 06:21:58;;;;;;;5.97;1.73;;;;;;;23.13;61.81;101752.25;5031064;28;20047;-69
2023/06/15 06:24:24;;;;;;;7.80;2.20;;;;;;;22.91;63.39;101752.94;5028264;28;20045;-70
2023/06/15 06:26:51;;;;;;;6.25;2.03;;;;;;;22.47;63.39;101759.69;5029995;28;20075;-71
2023/06/15 06:29:18;;;;;;;6.88;2.42;;;;;;;22.76;63.76;101765.59;5029664;28;20191;-70
2023/06/15 06:31:45;;;;;;;7.63;2.20;;;;;;;22.59;64.56;101760.63;5021784;28;20057;-70
2023/06/15 06:34:12;;;;;;;7.03;1.88;;;;;;;23.39;62.59;101768.09;5024228;28;20726;-70
2023/06/15 06:36:39;;;;;;;7.75;2.22;;;;;;;23.82;60.13;101768.38;5028634;28;20128;-70
2023/06/15 06:39:06;;;;;;;6.53;1.90;;;;;;;24.32;59.80;101761.84;5031779;28;20144;-69
2023/06/15 06:41:32;;;;;;;5.20;1.67;;;;;;;24.68;56.83;101763.41;5022568;28;20057;-70
2023/06/15 06:43:59;;;;;;;7.57;2.00;;;;;;;24.41;55.29;101756.59;5029507;28;20050;-69
2023/06/15 06:46:26;;;;;;;9.73;1.90;;;;;;;24.93;53.67;101756.03;5015196;28;20065;-70
2023/06/15 06:48:53;;;;;;;4.68;1.67;;;;;;;25.69;50.78;101753.25;5015307;28;20503;-71
2023/06/15 06:51:20;;;;;;;5.70;2.00;;;;;;;25.82;48.41;101761.97;5030774;28;20046;-70
2023/06/15 06:53:46;;;;;;;6.20;1.85;;;;;;;25.54;49.12;101752.75;5023430;28;20111;-70
2023/06/15 06:56:13;;;;;;;6.05;1.70;;;;;;;25.94;50.88;101757.38;5029947;28;20391;-70
2023/06/15 06:58:40;;;;;;;9.40;2.30;;;;;;;25.58;47.23;101757.72;5030661;28;20041;-70
2023/06/15 07:01:07;;;;;;;6.63;2.22;;;;;;;25.28;48.86;101755.81;5030488;28;20046;-68
2023/06/15 07:03:34;;;;;;;5.18;1.83;;;;;;;25.62;48.47;101757.44;5030098;28;20368;-68
2023/06/15 07:06:01;;;;;;;8.82;1.90;;;;;;;25.48;48.38;101761.31;5028684;28;20491;-68
2023/06/15 07:08:27;;;;;;;6.03;1.70;;;;;;;25.54;48.86;101767.00;5030124;28;20052;-70
2023/06/15 07:10:54;;;;;;;6.53;1.95;;;;;;;25.48;48.28;101758.63;5030599;28;20567;-70
2023/06/15 07:13:21;;;;;;;8.70;2.10;;;;;;;25.46;48.81;101764.16;5019705;28;20140;-70
2023/06/15 07:15:49;;;;;;;6.40;2.00;;;;;;;25.65;48.99;101763.41;5017104;28;20137;-72
2023/06/15 07:18:16;;;;;;;6.03;1.90;;;;;;;25.16;49.68;101759.47;5020069;28;20049;-72
2023/06/15 07:20:43;;;;;;;6.32;2.03;;;;;;;25.62;48.97;101754.78;5016912;28;20061;-72
2023/06/15 07:23:10;;;;;;;6.43;1.70;;;;;;;26.17;48.92;101762.56;5028526;28;20137;-72
2023/06/15 07:25:36;;;;;;;9.90;2.17;;;;;;;25.73;48.80;101752.03;5029700;28;20068;-72
2023/06/15 07:28:03;;;;;;;5.80;1.85;;;;;;;26.08;47.74;101756.19;5029437;28;20045;-71
2023/06/15 07:30:30;;;;;;;7.32;1.90;;;;;;;25.25;49.34;101763.25;5028648;28;20053;-72
2023/06/15 07:32:57;;;;;;;6.68;1.90;;;;;;;24.85;52.18;101767.38;5012994;28;20049;-72
2023/06/15 07:35:24;;;;;;;7.28;2.10;;;;;;;25.04;51.77;101756.00;5019310;28;20045;-71
2023/06/15 07:37:50;;;;;;;8.50;2.35;;;;;;;25.55;51.50;101755.31;5014445;28;20053;-73
2023/06/15 07:40:17;;;;;;;6.25;1.70;;;;;;;25.11;50.93;101735.78;5025824;28;20056;-73
2023/06/15 07:42:45;;;;;;;9.63;2.33;;;;;;;25.04;52.45;101757.81;5028733;28;20049;-72
2023/06/15 07:45:12;;;;;;;6.47;1.92;;;;;;;25.50;52.16;101738.78;5023958;28;20479;-72
2023/06/15 07:47:41;;;;;;;9.75;2.25;;;;;;;25.66;48.38;101740.16;5030415;28;20045;-72
2023/06/15 07:50:08;;;;;;;6.55;2.28;;;;;;;25.47;48.48;101744.38;5027922;28;20041;-73
2023/06/15 07:52:35;;;;;;;7.00;1.90;;;;;;;25.94;47.57;101760.94;5030699;28;20049;-72
2023/06/15 07:55:04;;;;;;;10.23;2.63;;;;;;;24.89;47.74;101755.44;5030176;28;20403;-72
2023/06/15 07:57:31;;;;;;;9.60;2.13;;;;;;;25.61;47.00;101751.25;5030932;28;20502;-71
2023/06/15 07:59:58;;;;;;;7.00;2.00;;;;;;;25.37;46.11;101755.06;5029123;28;20053;-73
2023/06/15 08:02:25;;;;;;;12.05;2.10;;;;;;;26.69;44.41;101752.59;5030483;28;20491;-72
2023/06/15 08:04:52;;;;;;;5.50;1.90;;;;;;;26.22;44.39;101745.06;5029376;28;20486;-72
2023/06/15 08:07:19;;;;;;;7.03;2.25;;;;;;;27.18;44.41;101737.38;5030239;28;20049;-73
2023/06/15 08:09:45;;;;;;;8.57;1.95;;;;;;;27.06;42.18;101744.72;5026365;28;20064;-73
2023/06/15 08:12:12;;;;;;;7.90;2.53;;;;;;;26.47;43.38;101746.44;5026159;28;20056;-72
2023/06/15 08:14:39;;;;;;;6.78;1.60;;;;;;;26.51;43.51;101755.91;5024284;28;20041;-72
2023/06/15 08:17:06;;;;;;;6.18;1.90;;;;;;;26.09;42.39;101760.56;5023480;28;20046;-72
2023/06/15 08:19:34;;;;;;;7.97;1.88;;;;;;;26.13;42.58;101754.81;5039425;28;20065;-72
2023/06/15 08:22:02;;;;;;;7.30;2.25;;;;;;;26.50;42.97;101754.22;5048292;28;20053;-71
2023/06/15 08:24:29;;;;;;;6.15;1.85;;;;;;;26.04;43.14;101760.13;5037313;28;20053;-72
2023/06/15 08:26:56;;;;;;;5.72;1.80;;;;;;;27.00;43.28;101750.66;5028697;28;20068;-73
2023/06/15 08:29:22;;;;;;;6.25;1.90;;;;;;;27.06;42.47;101749.25;5029794;28;20570;-72
2023/06/15 08:31:51;;;;;;;5.90;1.75;;;;;;;27.63;41.04;101747.50;5030058;28;20080;-72
2023/06/15 08:34:18;;;;;;;5.25;1.88;;;;;;;28.03;39.82;101748.28;5028906;28;20092;-72
2023/06/15 08:36:46;;;;;;;7.65;2.55;;;;;;;26.77;39.11;101758.09;5028734;28;20053;-73
2023/06/15 08:39:13;;;;;;;7.18;2.28;;;;;;;26.28;40.08;101752.59;5030469;28;20049;-73
2023/06/15 08:41:45;;;;;;;7.40;2.05;;;;;;;27.25;39.63;101745.69;5027079;28;20052;-73
2023/06/15 08:44:13;;;;;;;8.52;1.88;;;;;;;27.24;39.83;101747.53;5026814;28;20045;-72
2023/06/15 08:46:42;;;;;;;6.20;2.03;;;;;;;26.89;39.54;101762.38;5029037;28;20075;-71
2023/06/15 08:49:09;;;;;;;7.35;1.80;;;;;;;27.01;39.93;101740.75;5029382;28;20053;-71
2023/06/15 08:51:37;;;;;;;7.28;2.00;;;;;;;27.01;39.50;101740.75;5032887;28;20048;-72
2023/06/15 08:54:08;;;;;;;7.25;1.83;;;;;;;27.33;38.97;101747.72;5033891;28;20403;-71
2023/06/15 08:56:38;;;;;;;7.60;2.63;;;;;;;27.63;38.65;101747.50;5024825;28;20048;-72
2023/06/15 08:59:06;;;;;;;8.13;2.13;;;;;;;27.26;38.80;101744.72;5043702;28;20057;-72
2023/06/15 09:01:39;;;;;;;7.03;2.33;;;;;;;27.40;39.44;101751.53;5028772;28;20045;-71
2023/06/15 09:04:10;;;;;;;10.20;2.47;;;;;;;27.74;39.36;101742.97;5027004;28;20141;-71
2023/06/15 09:06:37;;;;;;;8.85;2.50;;;;;;;27.18;39.64;101752.63;5034816;28;20048;-71
2023/06/15 09:09:04;;;;;;;6.18;2.08;;;;;;;27.67;40.66;101737.31;5037892;28;20692;-71
2023/06/15 09:11:39;;;;;;;10.18;2.45;;;;;;;27.04;41.53;101757.44;5041530;28;20057;-71
2023/06/15 09:14:10;;;;;;;6.32;2.25;;;;;;;26.83;40.68;101754.88;5025128;28;20045;-71
2023/06/15 09:16:38;;;;;;;8.60;2.40;;;;;;;26.69;41.01;101758.81;5039642;28;20054;-71
2023/06/15 09:19:13;;;;;;;10.20;2.22;;;;;;;26.55;41.42;101764.56;5043589;28;20096;-71
2023/06/15 09:21:44;;;;;;;10.20;2.05;;;;;;;26.35;41.38;101752.91;5039913;28;20064;-70
2023/06/15 09:24:13;;;;;;;7.00;2.25;;;;;;;26.48;41.99;101749.97;5025773;28;20057;-71
2023/06/15 09:26:40;;;;;;;8.02;2.10;;;;;;;27.71;41.27;101751.31;5038182;28;20037;-71
2023/06/15 09:29:11;;;;;;;6.20;2.03;;;;;;;27.13;42.44;101766.50;5022068;28;20131;-71
2023/06/15 09:31:40;;;;;;;10.98;2.25;;;;;;;26.69;41.45;101757.97;5028502;28;20419;-71
2023/06/15 09:34:11;;;;;;;8.75;2.42;;;;;;;26.40;43.20;101756.03;5032324;28;20049;-71
2023/06/15 09:36:50;;;;;;;6.53;2.35;;;;;;;26.60;44.76;101751.56;5031925;28;20091;-71
2023/06/15 09:39:25;;;;;;;7.63;1.95;;;;;;;26.89;42.82;101766.91;5027811;28;20052;-72
2023/06/15 09:41:53;;;;;;;11.27;2.53;;;;;;;26.82;44.60;101760.41;5023164;28;20417;-72
2023/06/15 09:44:21;;;;;;;9.13;2.20;;;;;;;26.26;45.19;101759.94;5028593;28;20095;-72
2023/06/15 09:46:52;;;;;;;8.25;2.42;;;;;;;25.89;45.63;101765.81;5040522;28;20458;-72
2023/06/15 09:49:22;;;;;;;;;;;;;;;26.18;46.31;101772.34;5028908;28;20053;-72
2023/06/15 09:51:50;;;;;;;9.52;2.58;;;;;;;26.12;45.74;101763.00;5028785;28;19921;-72
2023/06/15 09:54:21;;;;;;;10.63;2.33;;;;;;;26.26;46.00;101762.63;5027369;28;20049;-72
2023/06/15 09:56:50;;;;;;;9.80;2.30;;;;;;;25.94;45.86;101765.44;5026750;28;20048;-72
2023/06/15 09:59:18;;;;;;;11.00;2.10;;;;;;;26.16;46.61;101772.47;5028208;28;20076;-72
2023/06/15 10:01:50;;;;;;;9.10;2.42;;;;;;;26.05;48.22;101773.41;5032347;28;20460;-71
2023/06/15 10:04:19;;;;;;;10.40;2.28;;;;;;;26.25;49.16;101771.66;5030542;28;20560;-71
2023/06/15 10:06:51;;;;;;;6.30;1.90;;;;;;;26.18;50.23;101775.03;5032788;28;20053;-71
2023/06/15 10:09:31;;;;;;;8.18;2.45;;;;;;;25.86;51.67;101774.13;5033260;28;20129;-72
2023/06/15 10:12:25;;;;;;;9.40;2.35;;;;;;;25.79;52.71;101775.63;5047281;28;20056;-72
2023/06/15 10:15:01;;;;;;;6.65;2.30;;;;;;;26.04;53.87;101763.66;5027644;28;20132;-72
2023/06/15 10:17:34;;;;;;;6.68;2.08;;;;;;;26.52;54.28;101778.25;5050540;28;20111;-72
2023/06/15 10:20:09;;;;;;;8.40;2.63;;;;;;;25.75;56.16;101769.69;5031755;28;20057;-72
2023/06/15 10:22:45;;;;;;;12.02;2.75;;;;;;;25.44;58.38;101771.44;5027716;28;20141;-72
2023/06/15 10:25:14;;;;;;;12.10;2.40;;;;;;;24.76;62.69;101781.53;5029709;28;20053;-72
2023/06/15 10:27:44;;;;;;;7.13;2.00;;;;;;;25.33;61.37;101791.13;5031359;28;20135;-72
2023/06/15 10:30:25;;;;;;;9.13;2.25;;;;;;;25.04;62.73;101782.81;5024335;28;20392;-72
2023/06/15 10:33:04;;;;;;;7.38;1.85;;;;;;;25.33;61.91;101796.47;5031525;28;20108;-72
2023/06/15 10:35:44;;;;;;;10.70;2.90;;;;;;;25.36;59.67;101784.66;5030813;28;20084;-72
2023/06/15 10:38:28;;;;;;;14.18;2.72;;;;;;;25.10;62.21;101793.00;5033008;28;20087;-72
2023/06/15 10:40:56;;;;;;;9.82;2.17;;;;;;;24.88;58.54;101785.91;5027516;28;20132;-72
2023/06/15 10:43:26;;;;;;;8.10;2.35;;;;;;;25.34;61.69;101782.09;5030121;28;20052;-72
2023/06/15 10:45:52;;;;;;;10.80;2.65;;;;;;;25.65;62.95;101770.59;5029872;28;20059;-72
2023/06/15 10:48:26;;;;;;;9.35;2.55;;;;;;;25.29;62.88;101789.69;5031399;28;20124;-72
2023/06/15 10:51:06;;;;;;;6.63;2.00;;;;;;;25.28;60.82;101787.97;5031612;28;20136;-72
2023/06/15 10:53:42;;;;;;;6.70;2.20;;;;;;;25.92;59.09;101797.75;5027842;28;20041;-72
2023/06/15 10:56:17;;;;;;;12.15;2.28;;;;;;;25.55;58.10;101766.03;5029762;28;20069;-72
2023/06/15 10:58:54;;;;;;;7.32;2.78;;;;;;;26.37;55.57;101799.25;5029323;28;20049;-72
2023/06/15 11:01:31;;;;;;;11.90;2.72;;;;;;;25.94;54.08;101787.75;5030740;28;20556;-72
2023/06/15 11:04:00;;;;;;;9.63;2.40;;;;;;;25.37;53.01;101797.94;5027579;28;20057;-72
2023/06/15 11:06:30;;;;;;;6.60;2.35;;;;;;;25.65;53.73;101800.94;5025037;28;20603;-72
2023/06/15 11:09:07;;;;;;;8.05;2.38;;;;;;;25.00;55.22;101784.88;5028999;28;20132;-72
2023/06/15 11:11:38;;;;;;;7.55;2.25;;;;;;;24.92;54.00;101797.22;5030765;28;20140;-69
2023/06/15 11:14:23;;;;;;;7.93;2.75;;;;;;;25.03;55.11;101797.16;5032425;28;20056;-69
2023/06/15 11:17:05;;;;;;;7.03;2.45;;;;;;;25.06;55.28;101790.72;5049215;28;20056;-68
2023/06/15 11:19:41;;;;;;;11.05;2.50;;;;;;;25.25;52.46;101795.41;5043973;28;20057;-69
2023/06/15 11:22:11;;;;;;;8.35;2.40;;;;;;;24.84;51.70;101795.13;5029022;28;20463;-69
2023/06/15 11:24:39;;;;;;;9.30;2.25;;;;;;;24.53;51.98;101789.59;5021730;28;20045;-69
2023/06/15 11:27:09;;;;;;;9.40;2.38;;;;;;;25.16;51.61;101792.50;5030118;28;20107;-69
2023/06/15 11:29:40;;;;;;;6.53;2.15;;;;;;;25.43;50.86;101790.34;5045694;28;20103;-69